createdAt,value
2019-06-09T00:00:29.611Z,0
2019-06-09T00:01:39.118Z,0
2019-06-09T00:02:32.278Z,0
2019-06-09T00:03:33.637Z,0
2019-06-09T00:04:37.383Z,0
2019-06-09T00:05:37.320Z,0
2019-06-09T00:06:37.630Z,0
2019-06-09T00:07:38.982Z,0
2019-06-09T00:08:40.333Z,0
2019-06-09T00:09:41.693Z,0
2019-06-09T00:10:43.040Z,0
2019-06-09T00:11:44.450Z,0
2019-06-09T00:12:47.180Z,0
2019-06-09T00:13:47.277Z,0
2019-06-09T00:14:48.441Z,0
2019-06-09T00:15:49.800Z,0
2019-06-09T00:16:51.156Z,0
2019-06-09T00:17:52.514Z,0
2019-06-09T00:18:53.873Z,0
2019-06-09T00:19:57.198Z,0
2019-06-09T00:20:57.786Z,0
2019-06-09T00:21:58.157Z,0
2019-06-09T00:22:59.196Z,0
2019-06-09T00:24:01.723Z,0
2019-06-09T00:25:02.532Z,0
2019-06-09T00:26:03.560Z,0
2019-06-09T00:27:05.172Z,0
2019-06-09T00:28:09.273Z,0
2019-06-09T00:29:09.673Z,0
2019-06-09T00:30:18.307Z,0
2019-06-09T00:31:11.354Z,0
2019-06-09T00:32:12.642Z,0
2019-06-09T00:33:12.826Z,0
2019-06-09T00:34:13.974Z,0
2019-06-09T00:35:17.699Z,0
2019-06-09T00:36:17.376Z,0
2019-06-09T00:37:18.021Z,0
2019-06-09T00:38:19.026Z,0
2019-06-09T00:39:20.431Z,0
2019-06-09T00:40:21.779Z,0
2019-06-09T00:41:23.146Z,0
2019-06-09T00:42:24.492Z,0
2019-06-09T00:43:27.437Z,0
2019-06-09T00:44:27.722Z,0
2019-06-09T00:45:28.702Z,0
2019-06-09T00:46:29.794Z,0
2019-06-09T00:47:31.151Z,0
2019-06-09T00:48:32.507Z,0
2019-06-09T00:49:33.864Z,0
2019-06-09T00:50:37.112Z,0
2019-06-09T00:51:38.011Z,0
2019-06-09T00:52:37.869Z,0
2019-06-09T00:53:39.219Z,0
2019-06-09T00:54:40.579Z,0
2019-06-09T00:55:41.939Z,0
2019-06-09T00:56:43.290Z,0
2019-06-09T00:57:44.640Z,0
2019-06-09T00:58:47.561Z,0
2019-06-09T00:59:47.549Z,0
2019-06-09T01:00:48.712Z,0
2019-06-09T01:01:59.506Z,0
2019-06-09T01:02:51.387Z,0
2019-06-09T01:03:52.734Z,0
2019-06-09T01:04:54.095Z,0
2019-06-09T01:05:57.294Z,0
2019-06-09T01:06:57.231Z,0
2019-06-09T01:07:58.101Z,0
2019-06-09T01:08:59.455Z,0
2019-06-09T01:10:00.811Z,0
2019-06-09T01:11:02.177Z,0
2019-06-09T01:12:03.533Z,0
2019-06-09T01:13:04.893Z,0
2019-06-09T01:14:09.436Z,0
2019-06-09T01:15:09.646Z,0
2019-06-09T01:16:11.211Z,0
2019-06-09T01:17:12.214Z,0
2019-06-09T01:18:12.551Z,0
2019-06-09T01:19:13.645Z,0
2019-06-09T01:20:15.646Z,0
2019-06-09T01:21:18.634Z,0
2019-06-09T01:22:18.529Z,0
2019-06-09T01:23:20.123Z,0
2019-06-09T01:24:20.331Z,0
2019-06-09T01:25:20.892Z,0
2019-06-09T01:26:22.074Z,0
2019-06-09T01:27:23.426Z,0
2019-06-09T01:28:24.781Z,0
2019-06-09T01:29:27.982Z,0
2019-06-09T01:30:29.714Z,0
2019-06-09T01:31:28.783Z,0
2019-06-09T01:32:34.756Z,0
2019-06-09T01:33:31.447Z,0
2019-06-09T01:34:32.801Z,0
2019-06-09T01:35:34.153Z,0
2019-06-09T01:36:37.272Z,0
2019-06-09T01:37:37.781Z,0
2019-06-09T01:38:38.143Z,0
2019-06-09T01:39:39.502Z,0
2019-06-09T01:40:40.846Z,0
2019-06-09T01:41:42.206Z,0
2019-06-09T01:42:43.552Z,0
2019-06-09T01:43:44.912Z,0
2019-06-09T01:44:47.336Z,0
2019-06-09T01:45:47.686Z,0
2019-06-09T01:46:48.905Z,0
2019-06-09T01:47:50.256Z,0
2019-06-09T01:48:51.623Z,0
2019-06-09T01:49:52.976Z,0
2019-06-09T01:50:54.325Z,0
2019-06-09T01:51:57.501Z,0
2019-06-09T01:52:57.622Z,0
2019-06-09T01:53:58.331Z,0
2019-06-09T01:54:59.688Z,0
2019-06-09T01:56:01.034Z,0
2019-06-09T01:57:02.391Z,0
2019-06-09T01:58:03.755Z,0
2019-06-09T01:59:05.101Z,0
2019-06-09T02:00:07.886Z,0
2019-06-09T02:01:08.107Z,0
2019-06-09T02:02:09.093Z,0
2019-06-09T02:03:11.069Z,0
2019-06-09T02:04:11.750Z,0
2019-06-09T02:05:13.580Z,0
2019-06-09T02:06:14.422Z,0
2019-06-09T02:07:18.276Z,0
2019-06-09T02:08:19.121Z,0
2019-06-09T02:09:19.247Z,0
2019-06-09T02:10:22.184Z,0
2019-06-09T02:11:23.202Z,0
2019-06-09T02:12:22.755Z,0
2019-06-09T02:13:23.997Z,0
2019-06-09T02:14:27.119Z,0
2019-06-09T02:15:30.486Z,0
2019-06-09T02:16:28.466Z,0
2019-06-09T02:17:28.976Z,0
2019-06-09T02:18:30.363Z,0
2019-06-09T02:19:31.762Z,0
2019-06-09T02:20:33.077Z,0
2019-06-09T02:21:34.425Z,0
2019-06-09T02:22:37.522Z,0
2019-06-09T02:23:37.422Z,0
2019-06-09T02:24:38.462Z,0
2019-06-09T02:25:39.821Z,0
2019-06-09T02:26:41.176Z,0
2019-06-09T02:27:42.523Z,0
2019-06-09T02:28:43.887Z,0
2019-06-09T02:29:47.268Z,0
2019-06-09T02:30:49.976Z,0
2019-06-09T02:31:49.325Z,0
2019-06-09T02:33:09.057Z,0
2019-06-09T02:33:54.773Z,0
2019-06-09T02:34:52.028Z,0
2019-06-09T02:36:08.824Z,0
2019-06-09T02:36:54.744Z,0
2019-06-09T02:37:56.133Z,0
2019-06-09T02:38:57.483Z,0
2019-06-09T02:40:01.839Z,0
2019-06-09T02:41:02.888Z,0
2019-06-09T02:42:02.112Z,0
2019-06-09T02:43:02.800Z,0
2019-06-09T02:44:04.181Z,0
2019-06-09T02:45:05.548Z,0
2019-06-09T02:46:06.894Z,0
2019-06-09T02:47:08.251Z,0
2019-06-09T02:48:12.294Z,0
2019-06-09T02:49:12.252Z,0
2019-06-09T02:50:13.356Z,0
2019-06-09T02:51:13.568Z,0
2019-06-09T02:52:14.912Z,0
2019-06-09T02:53:16.272Z,0
2019-06-09T02:54:18.804Z,0
2019-06-09T02:55:19.391Z,0
2019-06-09T02:56:25.039Z,0
2019-06-09T02:57:27.835Z,0
2019-06-09T02:58:29.505Z,0
2019-06-09T02:59:27.509Z,0
2019-06-09T03:00:32.686Z,0
2019-06-09T03:01:31.990Z,0
2019-06-09T03:02:32.948Z,0
2019-06-09T03:03:49.683Z,0
2019-06-09T03:04:41.996Z,0
2019-06-09T03:05:38.815Z,0
2019-06-09T03:07:12.983Z,0
2019-06-09T03:08:14.323Z,0
2019-06-09T03:09:47.122Z,5
2019-06-09T03:10:48.163Z,5
2019-06-09T03:12:25.985Z,5
2019-06-09T03:13:27.955Z,5
2019-06-09T03:14:54.548Z,5
2019-06-09T03:15:55.898Z,5
2019-06-09T03:17:33.918Z,11
2019-06-09T03:18:36.328Z,11
2019-06-09T03:20:03.138Z,11
2019-06-09T03:21:03.676Z,16
2019-06-09T03:22:40.932Z,16
2019-06-09T03:23:40.935Z,16
2019-06-09T03:25:12.603Z,22
2019-06-09T03:26:12.489Z,22
2019-06-09T03:27:46.393Z,22
2019-06-09T03:28:45.695Z,28
2019-06-09T03:30:18.562Z,28
2019-06-09T03:31:31.554Z,33
2019-06-09T03:33:25.176Z,33
2019-06-09T03:35:17.261Z,33
2019-06-09T03:35:48.194Z,39
2019-06-09T03:38:55.572Z,45
2019-06-09T03:40:27.587Z,45
2019-06-09T03:41:28.381Z,45
2019-06-09T03:42:56.784Z,50
2019-06-09T03:44:01.402Z,50
2019-06-09T03:45:37.047Z,56
2019-06-09T03:46:39.951Z,56
2019-06-09T03:47:53.489Z,61
2019-06-09T03:48:54.738Z,61
2019-06-09T03:50:36.685Z,67
2019-06-09T03:51:30.348Z,67
2019-06-09T03:53:02.978Z,73
2019-06-09T03:54:02.608Z,73
2019-06-09T03:55:43.175Z,78
2019-06-09T03:56:40.814Z,78
2019-06-09T03:58:02.308Z,84
2019-06-09T03:59:02.109Z,84
2019-06-09T04:00:42.915Z,90
2019-06-09T04:01:39.294Z,95
2019-06-09T04:03:06.523Z,101
2019-06-09T04:04:07.898Z,101
2019-06-09T04:06:07.919Z,106
2019-06-09T04:06:51.195Z,112
2019-06-09T04:08:03.195Z,118
2019-06-09T04:09:04.551Z,123
2019-06-09T04:10:40.484Z,123
2019-06-09T04:11:40.782Z,123
2019-06-09T04:13:12.254Z,140
2019-06-09T04:14:12.268Z,146
2019-06-09T04:15:44.808Z,157
2019-06-09T04:16:48.893Z,168
2019-06-09T04:18:07.601Z,168
2019-06-09T04:19:12.526Z,168
2019-06-09T04:20:45.373Z,163
2019-06-09T04:21:45.326Z,157
2019-06-09T04:23:15.309Z,157
2019-06-09T04:24:16.679Z,151
2019-06-09T04:25:51.973Z,146
2019-06-09T04:26:52.300Z,146
2019-06-09T04:28:12.151Z,151
2019-06-09T04:29:13.321Z,157
2019-06-09T04:30:49.301Z,157
2019-06-09T04:31:47.205Z,157
2019-06-09T04:33:21.963Z,163
2019-06-09T04:34:22.273Z,163
2019-06-09T04:36:12.206Z,163
2019-06-09T04:37:01.434Z,168
2019-06-09T04:38:16.350Z,174
2019-06-09T04:39:17.706Z,174
2019-06-09T04:40:52.782Z,180
2019-06-09T04:41:52.062Z,185
2019-06-09T04:43:24.884Z,185
2019-06-09T04:44:27.513Z,191
2019-06-09T04:45:57.941Z,196
2019-06-09T04:47:02.031Z,202
2019-06-09T04:48:22.515Z,213
2019-06-09T04:49:22.294Z,219
2019-06-09T04:50:54.582Z,230
2019-06-09T04:51:55.934Z,241
2019-06-09T04:53:34.728Z,253
2019-06-09T04:54:34.034Z,264
2019-06-09T04:56:02.823Z,275
2019-06-09T04:57:03.778Z,275
2019-06-09T04:58:30.103Z,275
2019-06-09T04:59:26.721Z,270
2019-06-09T05:00:59.080Z,264
2019-06-09T05:02:02.539Z,258
2019-06-09T05:03:36.250Z,253
2019-06-09T05:04:41.855Z,253
2019-06-09T05:06:06.810Z,258
2019-06-09T05:07:23.554Z,264
2019-06-09T05:08:30.502Z,264
2019-06-09T05:09:35.186Z,264
2019-06-09T05:11:03.453Z,258
2019-06-09T05:12:04.823Z,258
2019-06-09T05:13:41.966Z,264
2019-06-09T05:14:42.859Z,275
2019-06-09T05:16:12.930Z,303
2019-06-09T05:17:12.855Z,331
2019-06-09T05:18:38.819Z,371
2019-06-09T05:19:40.765Z,405
2019-06-09T05:21:07.864Z,438
2019-06-09T05:22:12.296Z,450
2019-06-09T05:23:48.028Z,455
2019-06-09T05:24:49.213Z,455
2019-06-09T05:26:15.580Z,444
2019-06-09T05:27:16.948Z,444
2019-06-09T05:28:45.499Z,438
2019-06-09T05:29:41.492Z,427
2019-06-09T05:31:12.355Z,421
2019-06-09T05:32:13.606Z,416
2019-06-09T05:33:47.118Z,376
2019-06-09T05:34:47.481Z,405
2019-06-09T05:36:22.023Z,365
2019-06-09T05:37:23.630Z,343
2019-06-09T05:38:50.934Z,450
2019-06-09T05:39:48.129Z,613
2019-06-09T05:41:16.706Z,770
2019-06-09T05:42:18.077Z,765
2019-06-09T05:43:51.047Z,725
2019-06-09T05:44:52.064Z,646
2019-06-09T05:45:53.476Z,607
2019-06-09T05:46:54.851Z,725
2019-06-09T05:47:56.230Z,641
2019-06-09T05:48:57.631Z,770
2019-06-09T05:50:00.751Z,866
2019-06-09T05:51:01.386Z,956
2019-06-09T05:52:01.842Z,720
2019-06-09T05:53:03.090Z,742
2019-06-09T05:54:04.465Z,1051
2019-06-09T05:55:05.821Z,1125
2019-06-09T05:56:07.197Z,877
2019-06-09T05:57:10.881Z,365
2019-06-09T05:58:11.353Z,826
2019-06-09T05:59:11.319Z,1181
2019-06-09T06:00:12.689Z,1158
2019-06-09T06:01:14.050Z,1198
2019-06-09T06:02:15.405Z,1198
2019-06-09T06:03:16.781Z,1186
2019-06-09T06:04:18.152Z,1186
2019-06-09T06:05:21.305Z,1153
2019-06-09T06:06:21.458Z,1091
2019-06-09T06:07:27.627Z,1141
2019-06-09T06:08:23.521Z,1186
2019-06-09T06:09:24.891Z,1237
2019-06-09T06:10:26.261Z,1023
2019-06-09T06:11:27.640Z,838
2019-06-09T06:12:29.017Z,1299
2019-06-09T06:13:31.724Z,1333
2019-06-09T06:14:32.487Z,1372
2019-06-09T06:15:34.082Z,1383
2019-06-09T06:16:34.473Z,1411
2019-06-09T06:17:36.538Z,1327
2019-06-09T06:18:37.054Z,1271
2019-06-09T06:19:39.236Z,1282
2019-06-09T06:20:41.562Z,1327
2019-06-09T06:21:41.808Z,1350
2019-06-09T06:22:43.672Z,1411
2019-06-09T06:23:44.584Z,1485
2019-06-09T06:24:45.078Z,1321
2019-06-09T06:25:47.111Z,1321
2019-06-09T06:26:47.859Z,1366
2019-06-09T06:27:51.575Z,1501
2019-06-09T06:28:50.919Z,1530
2019-06-09T06:29:52.023Z,1563
2019-06-09T06:30:53.396Z,1620
2019-06-09T06:31:54.751Z,1693
2019-06-09T06:32:56.156Z,1738
2019-06-09T06:33:57.513Z,1743
2019-06-09T06:35:01.101Z,1333
2019-06-09T06:36:01.530Z,1580
2019-06-09T06:37:01.555Z,1496
2019-06-09T06:38:02.925Z,1456
2019-06-09T06:39:04.297Z,1546
2019-06-09T06:40:05.677Z,1462
2019-06-09T06:41:07.055Z,1310
2019-06-09T06:42:08.422Z,1755
2019-06-09T06:43:10.588Z,1878
2019-06-09T06:44:11.565Z,1591
2019-06-09T06:45:12.472Z,1586
2019-06-09T06:46:13.852Z,1850
2019-06-09T06:47:16.170Z,1856
2019-06-09T06:48:16.561Z,1816
2019-06-09T06:49:17.936Z,1771
2019-06-09T06:50:21.065Z,1580
2019-06-09T06:51:21.244Z,1681
2019-06-09T06:52:22.000Z,1721
2019-06-09T06:53:23.419Z,1833
2019-06-09T06:54:24.801Z,1783
2019-06-09T06:55:26.169Z,1833
2019-06-09T06:56:27.552Z,1985
2019-06-09T06:57:28.937Z,1963
2019-06-09T06:58:32.026Z,1912
2019-06-09T06:59:31.727Z,1912
2019-06-09T07:00:32.976Z,1980
2019-06-09T07:01:34.353Z,1929
2019-06-09T07:02:35.735Z,1935
2019-06-09T07:03:38.282Z,1940
2019-06-09T07:04:38.500Z,1935
2019-06-09T07:05:42.168Z,1816
2019-06-09T07:06:42.566Z,1777
2019-06-09T07:07:53.212Z,1816
2019-06-09T07:08:45.875Z,1788
2019-06-09T07:09:46.809Z,1861
2019-06-09T07:10:46.957Z,1766
2019-06-09T07:11:49.014Z,1963
2019-06-09T07:12:50.959Z,1850
2019-06-09T07:13:51.927Z,2002
2019-06-09T07:14:52.622Z,2013
2019-06-09T07:15:57.299Z,2047
2019-06-09T07:16:54.516Z,2120
2019-06-09T07:17:55.891Z,2160
2019-06-09T07:18:57.264Z,2221
2019-06-09T07:19:58.635Z,2216
2019-06-09T07:21:01.435Z,2266
2019-06-09T07:22:01.748Z,1850
2019-06-09T07:23:02.746Z,1636
2019-06-09T07:24:04.123Z,1389
2019-06-09T07:25:05.508Z,1890
2019-06-09T07:26:06.882Z,2109
2019-06-09T07:27:08.257Z,2002
2019-06-09T07:28:10.563Z,2137
2019-06-09T07:29:11.641Z,1676
2019-06-09T07:30:13.182Z,2261
2019-06-09T07:31:13.637Z,2075
2019-06-09T07:32:15.008Z,2025
2019-06-09T07:33:16.393Z,2053
2019-06-09T07:34:17.791Z,2148
2019-06-09T07:35:21.363Z,2306
2019-06-09T07:36:21.213Z,2300
2019-06-09T07:37:21.971Z,2418
2019-06-09T07:38:27.701Z,2238
2019-06-09T07:39:24.503Z,2238
2019-06-09T07:40:25.883Z,2295
2019-06-09T07:41:27.261Z,2323
2019-06-09T07:42:31.155Z,2036
2019-06-09T07:43:31.725Z,1957
2019-06-09T07:44:31.322Z,2250
2019-06-09T07:45:32.698Z,2407
2019-06-09T07:46:34.077Z,2452
2019-06-09T07:47:35.459Z,2486
2019-06-09T07:48:36.927Z,2345
2019-06-09T07:49:38.308Z,2340
2019-06-09T07:50:41.095Z,2165
2019-06-09T07:51:41.910Z,1935
2019-06-09T07:52:46.445Z,1468
2019-06-09T07:53:44.849Z,967
2019-06-09T07:54:45.787Z,1035
2019-06-09T07:55:46.481Z,1136
2019-06-09T07:56:47.757Z,1051
2019-06-09T07:57:51.257Z,1856
2019-06-09T07:58:52.342Z,1721
2019-06-09T07:59:55.430Z,1642
2019-06-09T08:00:54.970Z,2098
2019-06-09T08:01:59.714Z,1839
2019-06-09T08:02:55.782Z,2497
2019-06-09T08:03:57.164Z,2570
2019-06-09T08:04:58.537Z,2491
2019-06-09T08:06:00.607Z,2553
2019-06-09T08:07:01.467Z,2480
2019-06-09T08:08:02.597Z,2424
2019-06-09T08:09:03.971Z,2441
2019-06-09T08:10:05.362Z,2649
2019-06-09T08:11:06.732Z,2790
2019-06-09T08:12:08.107Z,2795
2019-06-09T08:13:11.237Z,2643
2019-06-09T08:14:11.719Z,2109
2019-06-09T08:15:12.179Z,1738
2019-06-09T08:16:13.618Z,2446
2019-06-09T08:17:14.992Z,2621
2019-06-09T08:18:16.378Z,2598
2019-06-09T08:19:17.749Z,1597
2019-06-09T08:20:21.414Z,2407
2019-06-09T08:21:20.779Z,1890
2019-06-09T08:22:23.314Z,1980
2019-06-09T08:23:23.166Z,2086
2019-06-09T08:24:24.574Z,2221
2019-06-09T08:25:25.933Z,1726
2019-06-09T08:26:27.313Z,1496
2019-06-09T08:27:30.742Z,1513
2019-06-09T08:28:31.593Z,1378
2019-06-09T08:29:31.401Z,1496
2019-06-09T08:30:35.264Z,1406
2019-06-09T08:31:34.103Z,1423
2019-06-09T08:32:35.484Z,1501
2019-06-09T08:33:36.859Z,1935
2019-06-09T08:34:38.244Z,2176
2019-06-09T08:35:40.874Z,2176
2019-06-09T08:36:41.059Z,2013
2019-06-09T08:37:43.182Z,2463
2019-06-09T08:38:54.094Z,2514
2019-06-09T08:39:45.299Z,2441
2019-06-09T08:40:47.483Z,2272
2019-06-09T08:41:47.754Z,2615
2019-06-09T08:42:50.076Z,2818
2019-06-09T08:43:52.403Z,3324
2019-06-09T08:44:52.599Z,2936
2019-06-09T08:45:55.193Z,2829
2019-06-09T08:46:55.875Z,2716
2019-06-09T08:47:56.068Z,2396
2019-06-09T08:48:57.449Z,2621
2019-06-09T08:50:00.584Z,3189
2019-06-09T08:51:01.434Z,2486
2019-06-09T08:52:01.647Z,2182
2019-06-09T08:53:03.463Z,2013
2019-06-09T08:54:04.284Z,2064
2019-06-09T08:55:05.655Z,2233
2019-06-09T08:56:07.038Z,2323
2019-06-09T08:57:08.413Z,2531
2019-06-09T08:58:11.239Z,2542
2019-06-09T08:59:11.248Z,2638
2019-06-09T09:00:12.469Z,2205
2019-06-09T09:01:13.860Z,2176
2019-06-09T09:02:15.235Z,2677
2019-06-09T09:03:16.620Z,2790
2019-06-09T09:04:18.003Z,2356
2019-06-09T09:05:20.789Z,1901
2019-06-09T09:06:21.381Z,1676
2019-06-09T09:08:01.721Z,1811
2019-06-09T09:09:20.852Z,1856
2019-06-09T09:10:35.455Z,2081
2019-06-09T09:11:36.828Z,2351
2019-06-09T09:13:12.081Z,2700
2019-06-09T09:14:12.427Z,2632
2019-06-09T09:15:44.549Z,2435
2019-06-09T09:16:46.732Z,1918
2019-06-09T09:17:47.174Z,1389
2019-06-09T09:18:48.985Z,1417
2019-06-09T09:19:51.625Z,1906
2019-06-09T09:20:53.060Z,2233
2019-06-09T09:21:55.711Z,2255
2019-06-09T09:22:55.002Z,2205
2019-06-09T09:24:34.803Z,1974
2019-06-09T09:25:13.144Z,1721
2019-06-09T09:25:57.903Z,1861
2019-06-09T09:27:04.950Z,1715
2019-06-09T09:28:01.636Z,1546
2019-06-09T09:29:02.015Z,1366
2019-06-09T09:30:03.389Z,1681
2019-06-09T09:31:04.764Z,2790
2019-06-09T09:32:06.141Z,2424
2019-06-09T09:33:07.519Z,2463
2019-06-09T09:34:10.884Z,2401
2019-06-09T09:35:11.610Z,2975
2019-06-09T09:36:11.600Z,2823
2019-06-09T09:37:12.959Z,3223
2019-06-09T09:38:14.330Z,3234
2019-06-09T09:39:27.787Z,3442
2019-06-09T09:40:17.084Z,3436
2019-06-09T09:41:20.845Z,3285
2019-06-09T09:42:23.455Z,3369
2019-06-09T09:43:21.466Z,2975
2019-06-09T09:44:22.530Z,3121
2019-06-09T09:45:23.954Z,2970
2019-06-09T09:46:25.378Z,2587
2019-06-09T09:47:26.766Z,2266
2019-06-09T09:48:28.185Z,2531
2019-06-09T09:49:31.483Z,3116
2019-06-09T09:50:31.833Z,2784
2019-06-09T09:51:32.305Z,2806
2019-06-09T09:52:33.694Z,3121
2019-06-09T09:53:35.156Z,3330
2019-06-09T09:54:36.536Z,3341
2019-06-09T09:55:37.925Z,3375
2019-06-09T09:56:41.113Z,3487
2019-06-09T09:57:41.104Z,3380
2019-06-09T09:58:42.020Z,3391
2019-06-09T09:59:43.405Z,3285
2019-06-09T10:00:44.791Z,2986
2019-06-09T10:01:46.464Z,2565
2019-06-09T10:02:48.416Z,2199
2019-06-09T10:03:49.288Z,1321
2019-06-09T10:04:52.509Z,2767
2019-06-09T10:05:53.596Z,3273
2019-06-09T10:06:54.712Z,3510
2019-06-09T10:07:55.207Z,2908
2019-06-09T10:08:57.907Z,2497
2019-06-09T10:10:01.029Z,2047
2019-06-09T10:10:58.339Z,2683
2019-06-09T10:12:02.141Z,2750
2019-06-09T10:13:01.114Z,2508
2019-06-09T10:14:02.491Z,2491
2019-06-09T10:15:03.880Z,2210
2019-06-09T10:16:05.300Z,2401
2019-06-09T10:17:06.684Z,2896
2019-06-09T10:18:08.069Z,2559
2019-06-09T10:19:11.365Z,1923
2019-06-09T10:20:10.806Z,1963
2019-06-09T10:21:12.180Z,1732
2019-06-09T10:22:13.565Z,1468
2019-06-09T10:23:14.981Z,1698
2019-06-09T10:24:16.360Z,1771
2019-06-09T10:25:19.673Z,1895
2019-06-09T10:26:21.416Z,2328
2019-06-09T10:27:20.805Z,2199
2019-06-09T10:28:22.158Z,2379
2019-06-09T10:29:23.142Z,2002
2019-06-09T10:30:24.512Z,1726
2019-06-09T10:31:25.901Z,1991
2019-06-09T10:32:27.286Z,2143
2019-06-09T10:33:30.650Z,2306
2019-06-09T10:34:31.567Z,2278
2019-06-09T10:35:31.612Z,2205
2019-06-09T10:36:32.684Z,2621
2019-06-09T10:37:34.070Z,2508
2019-06-09T10:38:35.451Z,2390
2019-06-09T10:39:36.826Z,2508
2019-06-09T10:40:38.205Z,2475
2019-06-09T10:41:41.743Z,2986
2019-06-09T10:42:42.698Z,3285
2019-06-09T10:43:42.289Z,3234
2019-06-09T10:44:43.673Z,3166
2019-06-09T10:45:45.060Z,3301
2019-06-09T10:46:46.446Z,3555
2019-06-09T10:47:47.825Z,3515
2019-06-09T10:48:51.252Z,2958
2019-06-09T10:49:52.498Z,3217
2019-06-09T10:50:53.073Z,3065
2019-06-09T10:51:54.268Z,3251
2019-06-09T10:52:57.321Z,3026
2019-06-09T10:53:57.098Z,3015
2019-06-09T10:54:57.615Z,2728
2019-06-09T10:56:03.431Z,2025
2019-06-09T10:57:02.793Z,1366
2019-06-09T10:58:01.417Z,1299
2019-06-09T10:59:03.656Z,1524
2019-06-09T11:00:23.530Z,1951
2019-06-09T11:01:05.509Z,2143
2019-06-09T11:02:06.892Z,2143
2019-06-09T11:03:11.021Z,1991
2019-06-09T11:04:09.617Z,1906
2019-06-09T11:05:11.522Z,1895
2019-06-09T11:06:12.346Z,2115
2019-06-09T11:07:13.731Z,2385
2019-06-09T11:08:15.124Z,2553
2019-06-09T11:09:16.506Z,2531
2019-06-09T11:10:23.267Z,2570
2019-06-09T11:11:19.226Z,2565
2019-06-09T11:12:21.880Z,2463
2019-06-09T11:13:22.244Z,2396
2019-06-09T11:14:25.339Z,2306
2019-06-09T11:15:24.642Z,2148
2019-06-09T11:16:26.024Z,2205
2019-06-09T11:17:27.431Z,2171
2019-06-09T11:18:31.093Z,2334
2019-06-09T11:19:35.054Z,2295
2019-06-09T11:20:31.805Z,2356
2019-06-09T11:21:36.019Z,2430
2019-06-09T11:22:34.210Z,2289
2019-06-09T11:23:35.598Z,2188
2019-06-09T11:24:36.986Z,2210
2019-06-09T11:25:40.439Z,2154
2019-06-09T11:26:41.661Z,2120
2019-06-09T11:27:41.781Z,2199
2019-06-09T11:28:42.395Z,2053
2019-06-09T11:29:43.772Z,2070
2019-06-09T11:30:45.152Z,2002
2019-06-09T11:31:46.541Z,1867
2019-06-09T11:32:47.916Z,2137
2019-06-09T11:33:51.688Z,2272
2019-06-09T11:34:51.415Z,2660
2019-06-09T11:35:53.479Z,2677
2019-06-09T11:36:53.418Z,2413
2019-06-09T11:37:55.875Z,2733
2019-06-09T11:38:56.697Z,2925
2019-06-09T11:39:57.400Z,2823
2019-06-09T11:40:59.679Z,2936
2019-06-09T11:42:03.249Z,2964
2019-06-09T11:43:03.601Z,2970
2019-06-09T11:44:04.384Z,2823
2019-06-09T11:45:05.100Z,2975
2019-06-09T11:46:06.166Z,2756
2019-06-09T11:47:06.895Z,2334
2019-06-09T11:48:08.274Z,1968
2019-06-09T11:49:12.707Z,1726
2019-06-09T11:50:11.177Z,1361
2019-06-09T11:51:12.349Z,1215
2019-06-09T11:52:13.764Z,1209
2019-06-09T11:53:15.118Z,1293
2019-06-09T11:54:16.498Z,1383
2019-06-09T11:55:17.877Z,1451
2019-06-09T11:56:21.313Z,1479
2019-06-09T11:57:21.098Z,1468
2019-06-09T11:58:23.989Z,1428
2019-06-09T11:59:23.286Z,1406
2019-06-09T12:00:24.666Z,1440
2019-06-09T12:01:26.055Z,1445
2019-06-09T12:02:27.426Z,1468
2019-06-09T12:03:31.372Z,1507
2019-06-09T12:04:30.906Z,1546
2019-06-09T12:05:35.652Z,1530
2019-06-09T12:06:32.847Z,1552
2019-06-09T12:07:34.233Z,1552
2019-06-09T12:08:35.601Z,1524
2019-06-09T12:09:36.988Z,1603
2019-06-09T12:10:48.986Z,1681
2019-06-09T12:11:41.358Z,1743
2019-06-09T12:12:41.707Z,1811
2019-06-09T12:13:42.479Z,1839
2019-06-09T12:14:43.862Z,1828
2019-06-09T12:15:45.247Z,1822
2019-06-09T12:16:46.628Z,1873
2019-06-09T12:17:48.009Z,1878
2019-06-09T12:18:51.094Z,1929
2019-06-09T12:19:51.286Z,1890
2019-06-09T12:20:52.071Z,1648
2019-06-09T12:21:53.455Z,1625
2019-06-09T12:22:54.828Z,1575
2019-06-09T12:23:56.668Z,1518
2019-06-09T12:24:58.765Z,1451
2019-06-09T12:25:59.729Z,1288
2019-06-09T12:27:03.942Z,1243
2019-06-09T12:28:05.664Z,1209
2019-06-09T12:29:06.303Z,1260
2019-06-09T12:30:14.883Z,1350
2019-06-09T12:31:07.539Z,1428
2019-06-09T12:32:06.985Z,1473
2019-06-09T12:33:10.591Z,1530
2019-06-09T12:34:11.802Z,1479
2019-06-09T12:35:11.602Z,1456
2019-06-09T12:36:12.392Z,1440
2019-06-09T12:37:13.774Z,1423
2019-06-09T12:38:15.162Z,1350
2019-06-09T12:39:16.538Z,1316
2019-06-09T12:40:17.927Z,1299
2019-06-09T12:41:30.352Z,1338
2019-06-09T12:42:21.255Z,1344
2019-06-09T12:43:22.108Z,1338
2019-06-09T12:44:23.479Z,1310
2019-06-09T12:45:24.864Z,1276
2019-06-09T12:46:26.243Z,1254
2019-06-09T12:47:27.618Z,1237
2019-06-09T12:48:28.999Z,1254
2019-06-09T12:49:31.594Z,1276
2019-06-09T12:50:31.709Z,1305
2019-06-09T12:51:33.096Z,1321
2019-06-09T12:52:34.487Z,1344
2019-06-09T12:53:35.870Z,1350
2019-06-09T12:54:45.549Z,1378
2019-06-09T12:55:40.870Z,1372
2019-06-09T12:56:40.890Z,1361
2019-06-09T12:57:41.271Z,1310
2019-06-09T12:58:42.644Z,1276
2019-06-09T12:59:44.012Z,1248
2019-06-09T13:00:45.525Z,1243
2019-06-09T13:01:46.871Z,1231
2019-06-09T13:02:48.272Z,1220
2019-06-09T13:03:51.667Z,1226
2019-06-09T13:04:51.839Z,1237
2019-06-09T13:05:52.307Z,1243
2019-06-09T13:06:53.702Z,1276
2019-06-09T13:07:55.079Z,1316
2019-06-09T13:08:56.463Z,1333
2019-06-09T13:09:57.833Z,1355
2019-06-09T13:11:02.599Z,1361
2019-06-09T13:12:01.930Z,1350
2019-06-09T13:13:03.311Z,1305
2019-06-09T13:14:04.608Z,1271
2019-06-09T13:15:05.598Z,1243
2019-06-09T13:16:19.856Z,1226
2019-06-09T13:17:07.886Z,1209
2019-06-09T13:18:09.953Z,1220
2019-06-09T13:19:11.818Z,1215
2019-06-09T13:20:17.363Z,1226
2019-06-09T13:21:13.203Z,1237
2019-06-09T13:22:14.015Z,1243
2019-06-09T13:23:15.388Z,1254
2019-06-09T13:24:16.768Z,1254
2019-06-09T13:25:18.149Z,1248
2019-06-09T13:26:21.338Z,1220
2019-06-09T13:27:21.816Z,1198
2019-06-09T13:28:22.974Z,1175
2019-06-09T13:29:23.565Z,1141
2019-06-09T13:30:24.951Z,1119
2019-06-09T13:31:26.335Z,1085
2019-06-09T13:32:27.703Z,1068
2019-06-09T13:33:30.676Z,1051
2019-06-09T13:34:30.544Z,1040
2019-06-09T13:35:31.800Z,1035
2019-06-09T13:36:33.175Z,1040
2019-06-09T13:37:34.559Z,1057
2019-06-09T13:38:35.929Z,1068
2019-06-09T13:39:37.303Z,1074
2019-06-09T13:40:40.625Z,1068
2019-06-09T13:41:44.576Z,1068
2019-06-09T13:42:44.660Z,1074
2019-06-09T13:43:42.697Z,1068
2019-06-09T13:44:44.069Z,1040
2019-06-09T13:45:45.463Z,1006
2019-06-09T13:46:46.830Z,973
2019-06-09T13:47:50.667Z,911
2019-06-09T13:48:51.731Z,855
2019-06-09T13:49:51.346Z,804
2019-06-09T13:50:52.247Z,787
2019-06-09T13:51:53.619Z,787
2019-06-09T13:52:54.983Z,787
2019-06-09T13:53:56.375Z,798
2019-06-09T13:54:57.741Z,798
2019-06-09T13:56:01.630Z,821
2019-06-09T13:57:01.281Z,843
2019-06-09T13:58:01.796Z,871
2019-06-09T13:59:03.625Z,905
2019-06-09T14:00:05.770Z,939
2019-06-09T14:01:06.419Z,984
2019-06-09T14:02:08.371Z,1023
2019-06-09T14:03:09.958Z,1040
2019-06-09T14:04:13.279Z,1074
2019-06-09T14:05:12.766Z,1080
2019-06-09T14:06:14.355Z,1074
2019-06-09T14:07:15.125Z,1051
2019-06-09T14:08:16.979Z,1001
2019-06-09T14:09:16.811Z,950
2019-06-09T14:10:18.091Z,905
2019-06-09T14:11:19.329Z,883
2019-06-09T14:12:22.632Z,860
2019-06-09T14:13:22.028Z,855
2019-06-09T14:14:23.403Z,877
2019-06-09T14:15:25.953Z,888
2019-06-09T14:16:26.115Z,894
2019-06-09T14:17:27.494Z,900
2019-06-09T14:18:30.795Z,928
2019-06-09T14:19:30.854Z,961
2019-06-09T14:20:31.542Z,961
2019-06-09T14:21:32.914Z,933
2019-06-09T14:22:34.291Z,894
2019-06-09T14:23:35.656Z,922
2019-06-09T14:24:37.030Z,1006
2019-06-09T14:25:38.414Z,1068
2019-06-09T14:26:41.525Z,1080
2019-06-09T14:27:41.556Z,1035
2019-06-09T14:28:42.466Z,961
2019-06-09T14:29:43.856Z,877
2019-06-09T14:30:45.236Z,781
2019-06-09T14:32:00.105Z,691
2019-06-09T14:32:47.939Z,613
2019-06-09T14:33:49.324Z,551
2019-06-09T14:34:50.699Z,511
2019-06-09T14:35:52.074Z,500
2019-06-09T14:36:53.443Z,506
2019-06-09T14:37:54.830Z,517